Time;durP1;ratioP1;P1;durP2;ratioP2;P2;SDS_P1;SDS_P2;PMS_P1;PMS_P2;Temp;Humidity;BMP_temperature;BMP_pressure;BME280_temperature;BME280_humidity;BME280_pressure;Samples;Min_cycle;Max_cycle;Signal;HPM_P1;HPM_P2
2021/03/11 00:00:12;;;;;;;20.17;8.13;;;7.70;91.90;;;;;;5011930;28;20033;-73
2021/03/11 00:02:38;;;;;;;13.52;6.40;;;7.70;91.90;;;;;;5012765;28;20025;-73
2021/03/11 00:05:06;;;;;;;15.88;6.97;;;7.70;91.90;;;;;;5011944;28;20053;-74
2021/03/11 00:07:32;;;;;;;17.48;8.40;;;7.70;91.90;;;;;;5012763;28;20088;-74
2021/03/11 00:09:58;;;;;;;17.95;6.18;;;7.80;91.90;;;;;;5012392;28;20468;-73
2021/03/11 00:12:23;;;;;;;17.95;7.03;;;7.70;91.90;;;;;;5011725;28;20109;-73
2021/03/11 00:14:49;;;;;;;14.57;6.22;;;7.80;91.90;;;;;;5012479;28;20022;-73
2021/03/11 00:17:15;;;;;;;18.70;7.38;;;7.80;91.90;;;;;;5011327;28;20030;-74
2021/03/11 00:19:40;;;;;;;16.52;6.57;;;7.80;91.80;;;;;;5012407;28;20026;-73
2021/03/11 00:22:06;;;;;;;18.75;6.55;;;7.80;91.80;;;;;;5010461;28;20051;-74
2021/03/11 00:24:32;;;;;;;13.32;5.60;;;7.70;91.70;;;;;;5011790;28;20074;-72
2021/03/11 00:26:57;;;;;;;14.93;6.03;;;7.80;91.70;;;;;;5011969;28;20348;-73
2021/03/11 00:29:24;;;;;;;15.50;6.10;;;7.80;91.70;;;;;;5011356;28;20030;-74
2021/03/11 00:31:50;;;;;;;18.60;7.32;;;7.80;91.70;;;;;;5012103;28;20026;-74
2021/03/11 00:34:15;;;;;;;13.98;6.18;;;7.80;91.60;;;;;;5011144;28;20032;-73
2021/03/11 00:36:41;;;;;;;12.07;5.80;;;7.80;91.60;;;;;;5011010;28;20022;-72
2021/03/11 00:39:07;;;;;;;15.05;5.93;;;7.80;91.50;;;;;;5010323;28;20092;-74
2021/03/11 00:41:34;;;;;;;15.95;6.18;;;7.80;91.50;;;;;;5011767;28;20463;-72
2021/03/11 00:44:00;;;;;;;16.98;7.18;;;7.80;91.40;;;;;;5012041;28;20050;-72
2021/03/11 00:46:25;;;;;;;16.80;5.72;;;7.80;91.30;;;;;;5009826;28;20173;-73
2021/03/11 00:48:51;;;;;;;17.08;6.43;;;7.80;91.30;;;;;;5011793;28;20022;-72
2021/03/11 00:51:17;;;;;;;17.30;7.00;;;7.80;91.30;;;;;;5010990;28;20026;-73
2021/03/11 00:53:42;;;;;;;16.25;6.45;;;7.90;91.30;;;;;;5010517;28;20024;-73
2021/03/11 00:56:08;;;;;;;14.43;6.88;;;7.90;91.20;;;;;;5011313;28;20030;-74
2021/03/11 00:58:33;;;;;;;22.50;7.45;;;7.90;91.10;;;;;;5011674;28;20037;-73
2021/03/11 01:01:00;;;;;;;16.48;7.22;;;7.90;91.00;;;;;;5011531;28;20439;-73
2021/03/11 01:03:25;;;;;;;21.65;6.78;;;7.90;91.00;;;;;;5010656;28;20018;-72
2021/03/11 01:05:52;;;;;;;15.02;6.18;;;7.90;90.90;;;;;;5009880;28;20403;-72
2021/03/11 01:08:17;;;;;;;11.05;5.15;;;8.00;90.90;;;;;;5009552;28;20026;-74
2021/03/11 01:10:43;;;;;;;13.73;4.68;;;8.00;90.90;;;;;;5010507;28;20026;-72
2021/03/11 01:13:09;;;;;;;11.55;5.70;;;8.00;90.80;;;;;;5011224;28;20578;-73
2021/03/11 01:15:39;;;;;;;11.30;4.78;;;8.00;90.70;;;;;;5010864;28;20483;-72
2021/03/11 01:18:06;;;;;;;12.77;5.50;;;8.10;90.80;;;;;;5011551;28;20032;-72
2021/03/11 01:20:32;;;;;;;10.15;5.00;;;8.10;90.80;;;;;;5010700;28;20030;-73
2021/03/11 01:22:58;;;;;;;10.35;4.55;;;8.10;90.70;;;;;;5010191;28;20072;-70
2021/03/11 01:25:23;;;;;;;12.80;5.32;;;8.10;90.70;;;;;;5010577;28;20542;-72
2021/03/11 01:27:49;;;;;;;10.23;5.10;;;8.10;90.60;;;;;;5011505;28;20026;-73
2021/03/11 01:30:16;;;;;;;15.50;5.00;;;8.20;90.60;;;;;;5010462;28;20395;-72
2021/03/11 01:32:41;;;;;;;15.57;6.57;;;8.20;90.60;;;;;;5011223;28;20026;-72
2021/03/11 01:35:08;;;;;;;11.10;5.20;;;8.20;90.60;;;;;;5011041;28;20052;-72
2021/03/11 01:37:34;;;;;;;13.60;5.60;;;8.20;90.60;;;;;;5012055;28;20024;-72
2021/03/11 01:39:59;;;;;;;11.82;4.45;;;8.30;90.60;;;;;;5015353;28;20457;-72
2021/03/11 01:42:25;;;;;;;15.52;5.05;;;8.30;90.60;;;;;;5014449;28;20025;-73
2021/03/11 01:44:50;;;;;;;11.65;4.88;;;8.30;90.60;;;;;;5015331;28;20133;-72
2021/03/11 01:47:16;;;;;;;11.35;4.47;;;8.20;90.60;;;;;;5014212;28;20104;-73
2021/03/11 01:49:42;;;;;;;14.90;5.85;;;8.30;90.70;;;;;;5030157;28;20034;-72
2021/03/11 01:52:08;;;;;;;14.00;5.88;;;8.30;90.70;;;;;;5013982;28;20087;-72
2021/03/11 01:54:34;;;;;;;13.57;5.22;;;8.40;90.70;;;;;;5012854;28;20464;-72
2021/03/11 01:57:00;;;;;;;11.88;5.60;;;8.30;90.70;;;;;;5015011;28;20022;-73
2021/03/11 01:59:27;;;;;;;10.15;4.40;;;8.40;90.70;;;;;;5014248;28;20025;-72
2021/03/11 02:01:57;;;;;;;11.98;4.20;;;8.40;90.70;;;;;;5014853;28;20022;-72
2021/03/11 02:04:23;;;;;;;13.43;5.07;;;8.40;90.70;;;;;;5013826;28;20555;-72
2021/03/11 02:06:49;;;;;;;11.13;4.75;;;8.40;90.70;;;;;;5014753;28;20121;-72
2021/03/11 02:09:14;;;;;;;10.40;4.90;;;8.50;90.70;;;;;;5012866;28;20110;-73
2021/03/11 02:11:54;;;;;;;10.98;4.90;;;8.50;90.60;;;;;;5014459;28;20025;-73
2021/03/11 02:14:54;;;;;;;8.65;4.05;;;8.50;90.60;;;;;;5013799;28;20096;-72
2021/03/11 02:17:24;;;;;;;14.30;4.78;;;8.50;90.50;;;;;;5012591;28;20070;-73
2021/03/11 02:20:07;;;;;;;11.88;4.22;;;8.50;90.50;;;;;;5014248;28;20106;-72
2021/03/11 02:22:57;;;;;;;10.90;4.05;;;8.50;90.50;;;;;;5013717;28;20759;-73
2021/03/11 02:25:33;;;;;;;13.00;5.35;;;8.50;90.50;;;;;;5013676;28;20030;-72
2021/03/11 02:28:01;;;;;;;11.68;3.85;;;8.50;90.50;;;;;;5014517;28;20049;-72
2021/03/11 02:30:27;;;;;;;13.73;5.20;;;8.50;90.50;;;;;;5012204;28;20033;-72
2021/03/11 02:32:55;;;;;;;10.13;4.82;;;8.50;90.50;;;;;;5014432;28;20030;-72
2021/03/11 02:35:21;;;;;;;10.70;4.13;;;8.50;90.50;;;;;;5011838;28;20054;-72
2021/03/11 02:37:51;;;;;;;8.60;4.20;;;8.50;90.50;;;;;;5012895;28;20026;-72
2021/03/11 02:40:20;;;;;;;7.85;4.30;;;8.60;90.50;;;;;;5014003;28;20482;-74
2021/03/11 02:42:48;;;;;;;10.07;4.10;;;8.60;90.50;;;;;;5014147;28;20018;-72
2021/03/11 02:45:17;;;;;;;8.43;3.83;;;8.60;90.60;;;;;;5029219;28;20026;-72
2021/03/11 02:47:43;;;;;;;13.23;3.40;;;8.60;90.70;;;;;;5013784;28;20460;-73
2021/03/11 02:50:10;;;;;;;11.18;4.03;;;8.50;90.70;;;;;;5013577;28;20034;-71
2021/03/11 02:52:37;;;;;;;8.68;3.67;;;8.60;90.70;;;;;;5011934;28;20038;-72
2021/03/11 02:55:04;;;;;;;10.15;3.92;;;8.60;90.70;;;;;;5013702;28;20029;-72
2021/03/11 02:57:31;;;;;;;8.50;3.70;;;8.60;90.70;;;;;;5028109;28;20072;-72
2021/03/11 02:59:58;;;;;;;8.73;4.20;;;8.60;90.80;;;;;;5012608;28;20458;-72
2021/03/11 03:02:26;;;;;;;9.90;3.63;;;8.60;90.80;;;;;;5013068;28;20097;-73
2021/03/11 03:04:56;;;;;;;6.38;3.45;;;8.60;90.80;;;;;;5013071;28;20042;-72
2021/03/11 03:07:23;;;;;;;9.70;3.72;;;8.70;90.80;;;;;;5012885;28;20111;-72
2021/03/11 03:09:51;;;;;;;9.10;4.32;;;8.70;90.80;;;;;;5013571;28;20037;-72
2021/03/11 03:12:19;;;;;;;8.98;3.90;;;8.70;90.80;;;;;;5028212;28;20466;-72
2021/03/11 03:14:48;;;;;;;9.48;4.10;;;8.70;90.80;;;;;;5013664;28;20084;-71
2021/03/11 03:17:17;;;;;;;8.60;3.92;;;8.70;90.80;;;;;;5013312;28;20093;-71
2021/03/11 03:19:45;;;;;;;9.75;3.42;;;8.80;90.80;;;;;;5012916;28;20109;-72
2021/03/11 03:22:12;;;;;;;7.55;3.45;;;8.80;90.80;;;;;;5013446;28;20068;-72
2021/03/11 03:24:39;;;;;;;7.22;3.17;;;8.80;90.80;;;;;;5011339;28;20111;-72
2021/03/11 03:27:07;;;;;;;5.55;2.65;;;8.80;90.80;;;;;;5013274;28;20135;-72
2021/03/11 03:29:32;;;;;;;9.05;3.85;;;8.90;91.10;;;;;;5027695;28;20061;-73
2021/03/11 03:31:58;;;;;;;7.90;3.55;;;8.90;90.80;;;;;;5028647;28;20058;-72
2021/03/11 03:34:23;;;;;;;5.70;2.70;;;8.90;90.80;;;;;;5012188;28;20422;-72
2021/03/11 03:36:49;;;;;;;8.15;3.75;;;8.90;90.90;;;;;;5013231;28;20506;-71
2021/03/11 03:39:15;;;;;;;8.57;3.83;;;8.80;91.00;;;;;;5028407;28;20017;-72
2021/03/11 03:41:45;;;;;;;10.98;4.20;;;8.80;91.30;;;;;;5012202;28;20029;-71
2021/03/11 03:44:12;;;;;;;13.20;4.38;;;8.70;91.50;;;;;;5013421;28;20072;-72
2021/03/11 03:46:40;;;;;;;7.30;3.85;;;8.60;91.70;;;;;;5011788;28;20030;-72
2021/03/11 03:49:09;;;;;;;9.10;4.13;;;8.60;91.80;;;;;;5012964;28;20022;-73
2021/03/11 03:51:37;;;;;;;9.13;4.15;;;8.60;92.10;;;;;;5012324;28;20073;-72
2021/03/11 03:54:23;;;;;;;9.25;4.25;;;8.60;92.30;;;;;;5013166;28;20025;-73
2021/03/11 03:56:55;;;;;;;8.75;3.70;;;8.60;92.80;;;;;;5012943;28;20086;-73
2021/03/11 03:59:25;;;;;;;11.75;4.53;;;8.50;92.80;;;;;;5027588;28;20033;-74
2021/03/11 04:01:56;;;;;;;10.18;4.25;;;8.50;93.00;;;;;;5012604;28;20022;-72
2021/03/11 04:04:23;;;;;;;;;;;8.50;93.00;;;;;;5012441;28;20053;-73
2021/03/11 04:06:49;;;;;;;13.95;5.45;;;8.40;93.10;;;;;;5012566;28;19905;-72
2021/03/11 04:09:15;;;;;;;14.35;5.95;;;8.50;93.20;;;;;;5012580;28;20379;-72
2021/03/11 04:11:44;;;;;;;12.18;5.50;;;8.50;93.40;;;;;;5010405;28;20087;-73
2021/03/11 04:14:10;;;;;;;10.95;4.78;;;8.50;93.40;;;;;;5012213;28;20025;-72
2021/03/11 04:16:39;;;;;;;12.23;4.97;;;8.50;93.70;;;;;;5011391;28;20106;-72
2021/03/11 04:19:06;;;;;;;13.55;6.28;;;8.50;93.50;;;;;;5011025;28;20030;-74
2021/03/11 04:21:33;;;;;;;12.43;5.38;;;8.50;93.60;;;;;;5011805;28;20021;-73
2021/03/11 04:23:59;;;;;;;14.32;5.47;;;8.50;93.60;;;;;;5012429;28;20052;-74
2021/03/11 04:26:25;;;;;;;11.48;5.55;;;8.60;93.60;;;;;;5012060;28;20030;-74
2021/03/11 04:28:51;;;;;;;11.18;4.80;;;8.60;93.60;;;;;;5011827;28;20030;-74
2021/03/11 04:31:17;;;;;;;11.27;5.65;;;8.60;93.60;;;;;;5027185;28;20037;-72
2021/03/11 04:33:44;;;;;;;15.20;5.03;;;8.60;93.70;;;;;;5026089;28;20100;-73
2021/03/11 04:36:11;;;;;;;14.80;6.43;;;8.60;93.70;;;;;;5011792;28;20026;-73
2021/03/11 04:38:38;;;;;;;11.88;4.72;;;8.60;93.80;;;;;;5010006;28;20372;-73
2021/03/11 04:41:04;;;;;;;12.57;5.68;;;8.70;93.80;;;;;;5012095;28;20648;-73
2021/03/11 04:43:31;;;;;;;13.50;6.47;;;8.70;93.80;;;;;;5010877;28;20100;-73
2021/03/11 04:45:57;;;;;;;14.73;6.50;;;8.70;93.90;;;;;;5012013;28;20022;-73
2021/03/11 04:48:23;;;;;;;16.70;6.45;;;8.70;93.90;;;;;;5011613;28;20443;-73
2021/03/11 04:50:49;;;;;;;13.75;5.82;;;8.80;94.00;;;;;;5026184;28;20383;-73
2021/03/11 04:53:17;;;;;;;15.43;6.03;;;8.80;94.00;;;;;;5010531;28;20041;-73
2021/03/11 04:55:43;;;;;;;17.17;6.97;;;8.80;94.10;;;;;;5010879;28;20025;-73
2021/03/11 04:58:09;;;;;;;18.35;5.78;;;8.80;94.10;;;;;;5011182;28;20399;-73
2021/03/11 05:00:38;;;;;;;16.45;7.20;;;8.80;94.10;;;;;;5010693;28;20032;-73
2021/03/11 05:03:08;;;;;;;22.75;7.32;;;8.90;94.20;;;;;;5011989;28;20030;-73
2021/03/11 05:05:36;;;;;;;18.58;6.13;;;8.90;94.20;;;;;;5010697;28;20055;-74
2021/03/11 05:08:03;;;;;;;18.98;7.70;;;8.90;94.20;;;;;;5011559;28;20026;-74
2021/03/11 05:10:28;;;;;;;19.65;6.53;;;8.90;94.30;;;;;;5026027;28;20116;-74
2021/03/11 05:12:54;;;;;;;15.63;6.97;;;8.90;94.20;;;;;;5011443;28;20459;-74
2021/03/11 05:15:20;;;;;;;16.73;6.95;;;9.00;94.30;;;;;;5010188;28;20029;-74
2021/03/11 05:17:46;;;;;;;19.02;7.00;;;9.00;94.30;;;;;;5010444;28;20561;-74
2021/03/11 05:20:12;;;;;;;19.23;6.70;;;9.10;94.30;;;;;;5011531;28;20483;-74
2021/03/11 05:22:38;;;;;;;14.48;6.28;;;9.10;94.20;;;;;;5010421;28;20022;-75
2021/03/11 05:25:06;;;;;;;21.00;7.22;;;9.10;94.20;;;;;;5011438;28;20029;-73
2021/03/11 05:27:32;;;;;;;16.50;6.88;;;9.10;94.10;;;;;;5009191;28;20336;-74
2021/03/11 05:29:57;;;;;;;19.42;8.15;;;9.20;94.20;;;;;;5011306;28;20032;-74
2021/03/11 05:32:23;;;;;;;19.92;8.05;;;9.20;94.20;;;;;;5026513;28;20032;-74
2021/03/11 05:34:48;;;;;;;19.75;6.40;;;9.20;94.10;;;;;;5010296;28;20018;-74
2021/03/11 05:37:14;;;;;;;16.63;6.72;;;9.20;94.10;;;;;;5011474;28;20456;-74
2021/03/11 05:39:40;;;;;;;15.50;7.03;;;9.30;94.10;;;;;;5010558;28;20034;-74
2021/03/11 05:42:18;;;;;;;15.35;6.55;;;9.30;94.10;;;;;;5011391;28;20030;-76
2021/03/11 05:44:44;;;;;;;20.58;8.93;;;9.30;94.10;;;;;;5007166;28;20121;-74
2021/03/11 05:47:12;;;;;;;14.63;6.50;;;9.30;94.10;;;;;;5008415;28;20061;-76
2021/03/11 05:49:40;;;;;;;18.73;7.10;;;9.30;94.20;;;;;;5008798;28;20029;-76
2021/03/11 05:52:09;;;;;;;16.70;5.65;;;9.40;94.20;;;;;;5009481;28;20026;-75
2021/03/11 05:54:36;;;;;;;17.85;7.07;;;9.30;94.20;;;;;;5008627;28;20087;-75
2021/03/11 05:57:03;;;;;;;18.17;6.65;;;9.30;94.20;;;;;;5008780;28;20033;-76
2021/03/11 05:59:29;;;;;;;17.77;6.15;;;9.40;94.30;;;;;;5009417;28;20045;-78
2021/03/11 06:01:56;;;;;;;16.13;5.78;;;9.40;94.20;;;;;;5009022;28;20357;-73
2021/03/11 06:04:22;;;;;;;16.55;7.07;;;9.40;94.20;;;;;;5009379;28;20050;-73
2021/03/11 06:06:49;;;;;;;14.25;5.82;;;9.40;94.20;;;;;;5010109;28;20022;-73
2021/03/11 06:09:19;;;;;;;15.93;6.00;;;9.40;94.20;;;;;;5010936;28;20083;-73
2021/03/11 06:11:47;;;;;;;15.57;6.65;;;9.50;94.30;;;;;;5009929;28;20072;-72
2021/03/11 06:14:15;;;;;;;16.95;5.82;;;9.40;94.20;;;;;;5011022;28;20109;-71
2021/03/11 06:16:57;;;;;;;15.60;5.45;;;9.50;94.30;;;;;;5010331;28;20028;-73
2021/03/11 06:19:23;;;;;;;15.40;5.78;;;9.50;94.30;;;;;;5011427;28;20033;-74
2021/03/11 06:21:54;;;;;;;20.85;6.88;;;9.50;94.30;;;;;;5025543;28;20100;-72
2021/03/11 06:24:21;;;;;;;14.30;5.78;;;9.50;94.30;;;;;;5013968;28;20037;-73
2021/03/11 06:26:48;;;;;;;13.60;6.28;;;9.50;94.40;;;;;;5013063;28;20026;-73
2021/03/11 06:29:16;;;;;;;15.07;5.43;;;9.40;94.40;;;;;;5014608;28;20380;-73
2021/03/11 06:31:42;;;;;;;13.35;5.43;;;9.50;94.40;;;;;;5013945;28;20071;-73
2021/03/11 06:34:22;;;;;;;12.80;5.93;;;9.50;94.40;;;;;;5014763;28;20028;-73
2021/03/11 06:36:48;;;;;;;14.88;5.38;;;9.60;94.40;;;;;;5012870;28;20018;-72
2021/03/11 06:39:28;;;;;;;14.82;6.43;;;9.60;94.40;;;;;;5013392;28;20025;-72
2021/03/11 06:41:56;;;;;;;14.65;6.00;;;9.70;94.30;;;;;;5012819;28;20033;-73
2021/03/11 06:44:33;;;;;;;10.93;5.70;;;9.70;94.30;;;;;;5012924;28;20022;-72
2021/03/11 06:47:01;;;;;;;11.05;4.82;;;9.70;94.20;;;;;;5029885;28;20025;-71
2021/03/11 06:49:27;;;;;;;10.68;4.75;;;9.80;94.30;;;;;;5014233;28;20030;-73
2021/03/11 06:52:07;;;;;;;15.98;5.45;;;9.80;94.20;;;;;;5012209;28;20113;-72
2021/03/11 06:54:51;;;;;;;10.30;5.05;;;9.80;94.20;;;;;;5013679;28;20463;-72
2021/03/11 06:57:34;;;;;;;11.65;5.25;;;9.90;94.20;;;;;;5014498;28;20053;-72
2021/03/11 07:00:14;;;;;;;13.93;5.93;;;9.90;94.10;;;;;;5014346;28;20029;-73
2021/03/11 07:02:55;;;;;;;13.15;4.95;;;10.00;94.10;;;;;;5013653;28;20030;-72
2021/03/11 07:05:23;;;;;;;12.80;5.63;;;10.00;94.10;;;;;;5012850;28;20519;-72
2021/03/11 07:08:02;;;;;;;11.15;5.38;;;9.90;94.10;;;;;;5013388;28;20464;-72
2021/03/11 07:10:28;;;;;;;13.45;5.15;;;10.00;94.10;;;;;;5014131;28;20545;-72
2021/03/11 07:13:04;;;;;;;11.98;5.07;;;10.00;94.10;;;;;;5028662;28;20042;-72
2021/03/11 07:15:32;;;;;;;10.70;5.25;;;10.00;94.10;;;;;;5012828;28;20049;-72
2021/03/11 07:17:59;;;;;;;10.85;4.10;;;9.90;94.10;;;;;;5013333;28;20022;-72
2021/03/11 07:20:26;;;;;;;10.63;4.47;;;10.00;94.10;;;;;;5013808;28;20452;-72
2021/03/11 07:23:03;;;;;;;10.85;3.97;;;10.00;93.80;;;;;;5011751;28;20060;-72
2021/03/11 07:25:35;;;;;;;8.52;3.38;;;10.10;93.70;;;;;;5013514;28;20375;-73
2021/03/11 07:28:02;;;;;;;7.90;3.25;;;10.10;93.40;;;;;;5013943;28;20104;-72
2021/03/11 07:30:30;;;;;;;7.95;2.90;;;10.20;92.80;;;;;;5013688;28;20506;-72
2021/03/11 07:33:03;;;;;;;7.60;2.47;;;10.30;92.20;;;;;;5013125;28;20305;-72
2021/03/11 07:35:31;;;;;;;8.75;2.97;;;10.40;91.80;;;;;;5011438;28;20053;-71
2021/03/11 07:38:00;;;;;;;5.50;1.95;;;10.40;91.40;;;;;;5012981;28;20032;-72
2021/03/11 07:40:27;;;;;;;3.03;1.70;;;10.50;90.60;;;;;;5013520;28;20034;-72
2021/03/11 07:42:53;;;;;;;3.97;2.15;;;10.50;90.60;;;;;;5012877;28;20030;-72
2021/03/11 07:45:19;;;;;;;6.90;2.03;;;10.60;90.90;;;;;;5012377;28;20104;-72
2021/03/11 07:47:45;;;;;;;1.85;1.52;;;10.60;91.00;;;;;;5012891;28;20407;-72
2021/03/11 07:50:13;;;;;;;4.80;1.88;;;10.60;91.00;;;;;;5028764;28;20061;-72
2021/03/11 07:52:40;;;;;;;5.13;2.08;;;10.60;90.40;;;;;;5012792;28;20030;-72
2021/03/11 07:55:10;;;;;;;6.45;2.10;;;10.70;90.80;;;;;;5013391;28;20029;-72
2021/03/11 07:57:40;;;;;;;3.30;1.83;;;10.80;90.70;;;;;;5013315;28;20026;-72
2021/03/11 08:00:07;;;;;;;3.83;1.75;;;10.90;90.60;;;;;;5012981;28;20105;-71
2021/03/11 08:02:35;;;;;;;4.03;1.95;;;11.00;90.60;;;;;;5013132;28;20474;-72
2021/03/11 08:05:01;;;;;;;3.92;1.73;;;11.00;90.60;;;;;;5012085;28;20034;-71
2021/03/11 08:07:27;;;;;;;4.47;2.05;;;11.10;90.60;;;;;;5012641;28;20068;-72
2021/03/11 08:09:55;;;;;;;3.20;1.35;;;11.10;90.30;;;;;;5012183;28;20104;-72
2021/03/11 08:12:38;;;;;;;4.68;1.70;;;11.10;90.30;;;;;;5012967;28;20109;-71
2021/03/11 08:15:31;;;;;;;6.35;2.45;;;11.20;89.90;;;;;;5013042;28;20115;-72
2021/03/11 08:17:56;;;;;;;6.00;2.00;;;11.20;87.80;;;;;;5012240;28;20029;-72
2021/03/11 08:20:25;;;;;;;4.45;1.70;;;11.30;88.60;;;;;;5012829;28;20026;-72
2021/03/11 08:22:55;;;;;;;4.22;1.67;;;11.30;88.60;;;;;;5012139;28;20032;-71
2021/03/11 08:25:33;;;;;;;5.85;1.65;;;11.40;86.10;;;;;;5027891;28;20021;-72
2021/03/11 08:28:08;;;;;;;6.25;2.80;;;11.40;85.00;;;;;;5027118;28;20106;-72
2021/03/11 08:30:43;;;;;;;4.15;1.70;;;11.50;83.80;;;;;;5027752;28;20037;-71
2021/03/11 08:33:10;;;;;;;1.75;1.30;;;11.60;82.80;;;;;;5012555;28;20025;-71
2021/03/11 08:35:40;;;;;;;3.33;1.45;;;11.70;82.00;;;;;;5012291;28;20022;-72
2021/03/11 08:38:21;;;;;;;6.77;2.00;;;11.70;82.20;;;;;;5012279;28;20043;-73
2021/03/11 08:41:09;;;;;;;4.18;1.60;;;11.80;80.70;;;;;;5012334;28;20269;-72
2021/03/11 08:43:35;;;;;;;2.00;1.15;;;11.90;80.90;;;;;;5012460;28;20101;-72
2021/03/11 08:46:14;;;;;;;5.60;2.17;;;11.90;78.60;;;;;;5011678;28;20162;-72
2021/03/11 08:48:42;;;;;;;3.88;1.88;;;11.90;78.00;;;;;;5012055;28;20117;-73
2021/03/11 08:51:31;;;;;;;4.47;1.45;;;12.00;77.70;;;;;;5011175;28;20125;-72
2021/03/11 08:54:01;;;;;;;5.03;1.52;;;12.00;78.20;;;;;;5007159;28;20548;-72
2021/03/11 08:56:26;;;;;;;6.97;1.70;;;12.10;77.60;;;;;;5010986;28;20014;-71
2021/03/11 08:58:57;;;;;;;3.63;2.10;;;12.10;76.10;;;;;;5026801;28;20105;-72
2021/03/11 09:01:29;;;;;;;5.13;1.10;;;12.20;76.80;;;;;;5027562;28;20376;-72
2021/03/11 09:03:55;;;;;;;6.45;2.65;;;12.20;76.00;;;;;;5026737;28;20080;-71
2021/03/11 09:06:50;;;;;;;6.70;1.23;;;12.20;76.30;;;;;;5012106;28;20057;-72
2021/03/11 09:09:17;;;;;;;4.18;1.45;;;12.30;76.50;;;;;;5011955;28;20080;-72
2021/03/11 09:12:12;;;;;;;2.30;1.05;;;12.20;75.80;;;;;;5011987;28;20164;-72
2021/03/11 09:14:40;;;;;;;5.65;1.40;;;12.30;75.30;;;;;;5012048;28;20026;-71
2021/03/11 09:17:07;;;;;;;3.08;1.98;;;12.20;75.70;;;;;;5011065;28;20049;-72
2021/03/11 09:19:41;;;;;;;11.35;2.03;;;12.20;75.50;;;;;;5012000;28;20049;-72
2021/03/11 09:22:23;;;;;;;4.13;1.88;;;12.20;76.30;;;;;;5011503;28;20568;-72
2021/03/11 09:24:58;;;;;;;6.15;1.52;;;12.20;76.50;;;;;;5011428;28;20022;-72
2021/03/11 09:27:30;;;;;;;10.70;1.63;;;12.30;75.60;;;;;;5012039;28;20022;-72
2021/03/11 09:29:56;;;;;;;6.85;1.90;;;12.40;74.70;;;;;;5011319;28;20037;-71
2021/03/11 09:32:33;;;;;;;8.32;2.10;;;12.40;74.80;;;;;;5011941;28;20149;-72
2021/03/11 09:35:10;;;;;;;10.45;1.63;;;12.50;74.00;;;;;;5011232;28;20037;-72
2021/03/11 09:37:54;;;;;;;7.03;2.50;;;12.60;73.40;;;;;;5011532;28;20050;-72
2021/03/11 09:40:29;;;;;;;6.57;1.60;;;12.60;72.60;;;;;;5012305;28;20021;-71
2021/03/11 09:43:05;;;;;;;4.90;2.08;;;12.60;72.40;;;;;;5011457;28;20026;-71
2021/03/11 09:45:52;;;;;;;5.18;2.05;;;12.70;72.70;;;;;;5012050;28;20022;-72
2021/03/11 09:48:25;;;;;;;7.72;2.17;;;12.70;72.40;;;;;;5011700;28;20018;-72
2021/03/11 09:51:20;;;;;;;8.60;1.98;;;12.80;72.20;;;;;;5025914;28;20030;-72
2021/03/11 09:53:56;;;;;;;18.20;2.75;;;12.80;71.20;;;;;;5026752;28;20081;-72
2021/03/11 09:56:25;;;;;;;8.15;2.33;;;12.80;70.60;;;;;;5009771;28;20026;-72
2021/03/11 09:58:59;;;;;;;6.03;1.92;;;12.80;71.10;;;;;;5012638;28;20056;-73
2021/03/11 10:01:36;;;;;;;10.57;2.17;;;12.80;70.80;;;;;;5014140;28;20018;-72
2021/03/11 10:04:27;;;;;;;8.73;2.00;;;12.80;71.70;;;;;;5014804;28;20109;-72
2021/03/11 10:06:56;;;;;;;11.63;2.10;;;12.80;70.60;;;;;;5014881;28;20053;-73
2021/03/11 10:09:23;;;;;;;3.72;1.50;;;12.80;70.10;;;;;;5030360;28;20018;-72
2021/03/11 10:11:52;;;;;;;7.03;1.73;;;12.70;70.50;;;;;;5014397;28;20546;-74
2021/03/11 10:14:21;;;;;;;5.47;2.10;;;12.70;69.50;;;;;;5013907;28;20030;-72
2021/03/11 10:16:54;;;;;;;11.63;2.80;;;12.70;68.80;;;;;;5015188;28;20040;-71
2021/03/11 10:19:22;;;;;;;5.97;1.63;;;12.70;70.00;;;;;;5014913;28;20030;-72
2021/03/11 10:21:58;;;;;;;7.18;2.10;;;12.70;68.50;;;;;;5014502;28;20022;-73
2021/03/11 10:24:42;;;;;;;6.07;2.53;;;12.70;69.00;;;;;;5029959;28;20029;-72
2021/03/11 10:27:34;;;;;;;10.38;1.92;;;12.80;67.10;;;;;;5014580;28;20337;-72
2021/03/11 10:30:02;;;;;;;4.97;2.08;;;12.80;67.50;;;;;;5012913;28;20360;-71
2021/03/11 10:32:28;;;;;;;9.20;1.70;;;12.70;66.60;;;;;;5029994;28;20478;-72
2021/03/11 10:34:53;;;;;;;5.10;1.90;;;12.80;66.30;;;;;;5013974;28;20454;-72
2021/03/11 10:37:31;;;;;;;9.68;2.15;;;12.70;65.70;;;;;;5014601;28;20464;-73
2021/03/11 10:39:59;;;;;;;6.82;1.67;;;12.80;65.60;;;;;;5013955;28;20029;-72
2021/03/11 10:42:37;;;;;;;3.85;1.60;;;12.80;65.20;;;;;;5014333;28;20033;-72
2021/03/11 10:45:04;;;;;;;6.15;1.88;;;12.80;64.80;;;;;;5029314;28;20022;-72
2021/03/11 10:47:30;;;;;;;6.13;1.45;;;12.80;65.80;;;;;;5029711;28;20080;-71
2021/03/11 10:49:56;;;;;;;6.15;1.88;;;12.80;65.70;;;;;;5028883;28;20030;-71
2021/03/11 10:52:22;;;;;;;4.57;1.73;;;12.90;65.00;;;;;;5014122;28;20422;-72
2021/03/11 10:54:48;;;;;;;5.60;1.65;;;13.00;64.80;;;;;;5014412;28;20030;-72
2021/03/11 10:57:19;;;;;;;10.63;1.67;;;13.00;65.40;;;;;;5013731;28;20025;-71
2021/03/11 10:59:58;;;;;;;7.28;2.05;;;13.00;65.00;;;;;;5014564;28;20013;-72
2021/03/11 11:02:28;;;;;;;5.72;2.45;;;12.90;64.80;;;;;;5014009;28;20069;-72
2021/03/11 11:04:56;;;;;;;10.68;2.67;;;12.90;64.80;;;;;;5013327;28;20061;-72
2021/03/11 11:07:22;;;;;;;7.55;1.52;;;12.80;67.30;;;;;;5014255;28;20044;-71
2021/03/11 11:09:48;;;;;;;5.10;1.27;;;12.60;68.90;;;;;;5029166;28;20123;-72
2021/03/11 11:12:16;;;;;;;13.60;1.83;;;12.50;68.80;;;;;;5013487;28;20119;-71
2021/03/11 11:14:47;;;;;;;5.68;1.20;;;12.50;68.50;;;;;;5014062;28;20026;-71
2021/03/11 11:17:13;;;;;;;7.20;3.03;;;12.50;68.20;;;;;;5028555;28;20367;-72
2021/03/11 11:19:40;;;;;;;6.68;2.08;;;12.60;67.70;;;;;;5014141;28;20026;-72
2021/03/11 11:22:08;;;;;;;5.85;2.15;;;12.50;67.50;;;;;;5013164;28;20108;-71
2021/03/11 11:24:38;;;;;;;5.78;2.15;;;12.60;66.70;;;;;;5013832;28;20014;-71
2021/03/11 11:27:04;;;;;;;10.65;2.67;;;12.60;65.90;;;;;;5028298;28;20468;-72
2021/03/11 11:29:31;;;;;;;6.93;1.40;;;12.60;65.90;;;;;;5013513;28;20101;-73
2021/03/11 11:31:56;;;;;;;4.25;1.48;;;12.60;64.30;;;;;;5013129;28;20026;-72
2021/03/11 11:34:22;;;;;;;7.07;1.30;;;12.70;64.20;;;;;;5028815;28;20064;-72
2021/03/11 11:36:48;;;;;;;5.38;2.00;;;12.80;63.70;;;;;;5013513;28;20535;-73
2021/03/11 11:39:14;;;;;;;4.15;1.42;;;12.80;63.20;;;;;;5011261;28;20195;-71
2021/03/11 11:41:41;;;;;;;4.68;1.40;;;12.90;63.50;;;;;;5013465;28;20014;-72
2021/03/11 11:44:09;;;;;;;5.72;1.40;;;12.90;63.50;;;;;;5012822;28;20026;-72
2021/03/11 11:46:34;;;;;;;5.90;2.30;;;12.90;63.50;;;;;;5012011;28;20026;-71
2021/03/11 11:49:01;;;;;;;5.28;1.45;;;12.90;63.80;;;;;;5012668;28;20404;-72
2021/03/11 11:51:26;;;;;;;3.92;1.83;;;13.00;63.30;;;;;;5013033;28;20037;-72
2021/03/11 11:53:52;;;;;;;7.30;1.88;;;13.00;63.10;;;;;;5013336;28;20022;-72
2021/03/11 11:56:18;;;;;;;5.72;1.75;;;13.10;63.40;;;;;;5012644;28;20022;-72
2021/03/11 11:58:45;;;;;;;6.97;1.15;;;13.10;63.20;;;;;;5013214;28;20036;-72
2021/03/11 12:01:14;;;;;;;13.50;1.95;;;13.10;62.80;;;;;;5011147;28;20036;-72
2021/03/11 12:03:40;;;;;;;2.55;1.63;;;13.10;63.10;;;;;;5028366;28;20022;-72
2021/03/11 12:06:06;;;;;;;4.05;2.20;;;13.10;63.60;;;;;;5012225;28;20549;-72
2021/03/11 12:08:32;;;;;;;4.00;1.38;;;13.10;63.40;;;;;;5013018;28;20081;-72
2021/03/11 12:10:58;;;;;;;5.28;1.42;;;13.20;63.30;;;;;;5012241;28;20041;-73
2021/03/11 12:13:23;;;;;;;6.47;1.83;;;13.20;63.50;;;;;;5012597;28;20029;-72
2021/03/11 12:15:49;;;;;;;7.82;1.27;;;13.10;63.20;;;;;;5012941;28;20320;-72
2021/03/11 12:18:15;;;;;;;7.22;1.50;;;13.20;63.30;;;;;;5027399;28;20068;-72
2021/03/11 12:20:41;;;;;;;10.63;1.67;;;13.20;61.70;;;;;;5012446;28;20451;-72
2021/03/11 12:23:06;;;;;;;4.82;0.80;;;13.20;62.10;;;;;;5011904;28;20084;-72
2021/03/11 12:25:34;;;;;;;6.70;1.35;;;13.20;61.80;;;;;;5027923;28;20068;-72
2021/03/11 12:27:59;;;;;;;10.68;1.40;;;13.20;62.10;;;;;;5012005;28;20105;-72
2021/03/11 12:30:26;;;;;;;9.77;1.35;;;13.20;62.00;;;;;;5012719;28;20118;-72
2021/03/11 12:32:52;;;;;;;6.07;2.17;;;13.10;62.40;;;;;;5012606;28;20127;-72
2021/03/11 12:35:18;;;;;;;5.80;1.23;;;13.10;61.90;;;;;;5010590;28;21069;-72
2021/03/11 12:37:44;;;;;;;12.52;2.05;;;13.10;62.00;;;;;;5027619;28;20052;-71
2021/03/11 12:40:11;;;;;;;4.53;1.30;;;13.20;62.10;;;;;;5011807;28;20072;-72
2021/03/11 12:42:37;;;;;;;6.18;1.48;;;13.30;61.60;;;;;;5012464;28;20014;-72
2021/03/11 12:45:04;;;;;;;2.83;1.42;;;13.30;61.30;;;;;;5012041;28;20047;-72
2021/03/11 12:47:33;;;;;;;3.22;1.27;;;13.40;61.30;;;;;;5011009;28;20037;-72
2021/03/11 12:49:58;;;;;;;4.18;1.30;;;13.40;61.70;;;;;;5011988;28;20483;-71
2021/03/11 12:52:24;;;;;;;5.22;1.10;;;13.40;62.00;;;;;;5010264;28;20032;-72
2021/03/11 12:54:50;;;;;;;4.03;1.17;;;13.40;62.30;;;;;;5012029;28;20026;-72
2021/03/11 12:57:15;;;;;;;4.82;1.33;;;13.50;61.50;;;;;;5026794;28;20363;-72